createdAt,value
2016-09-12T00:00:54.413Z,72.86
2016-09-12T00:01:54.419Z,72.64
2016-09-12T00:02:54.414Z,73.21
2016-09-12T00:03:54.411Z,73.06
2016-09-12T00:04:54.415Z,73.21
2016-09-12T00:05:54.461Z,72.83
2016-09-12T00:06:54.423Z,72.92
2016-09-12T00:07:54.404Z,73.11
2016-09-12T00:08:54.410Z,73.02
2016-09-12T00:09:54.423Z,73.41
2016-09-12T00:10:54.398Z,73.31
2016-09-12T00:11:54.400Z,73.79
2016-09-12T00:12:54.403Z,73.79
2016-09-12T00:13:54.404Z,73.88
2016-09-12T00:14:54.397Z,74.17
2016-09-12T00:15:54.392Z,73.79
2016-09-12T00:16:54.407Z,74.37
2016-09-12T00:17:54.397Z,73.98
2016-09-12T00:18:54.397Z,74.37
2016-09-12T00:19:54.386Z,73.75
2016-09-12T00:20:54.402Z,73.94
2016-09-12T00:21:54.391Z,73.98
2016-09-12T00:22:54.388Z,74.52
2016-09-12T00:23:54.375Z,74.33
2016-09-12T00:24:54.379Z,74.62
2016-09-12T00:25:54.383Z,74.62
2016-09-12T00:26:54.379Z,74.43
2016-09-12T00:27:54.380Z,74.52
2016-09-12T00:28:54.376Z,75.38
2016-09-12T00:29:54.366Z,75
2016-09-12T00:30:54.406Z,74.9
2016-09-12T00:31:54.389Z,74.81
2016-09-12T00:32:54.372Z,75
2016-09-12T00:33:54.363Z,75.29
2016-09-12T00:34:54.667Z,74.9
2016-09-12T00:35:54.355Z,74.9
2016-09-12T00:36:54.361Z,75.67
2016-09-12T00:37:54.362Z,75.2
2016-09-12T00:38:54.370Z,75.2
2016-09-12T00:39:54.346Z,75.29
2016-09-12T00:40:54.351Z,75.29
2016-09-12T00:41:54.343Z,75.2
2016-09-12T00:42:54.351Z,75.2
2016-09-12T00:43:54.642Z,75.87
2016-09-12T00:44:54.336Z,75.67
2016-09-12T00:45:54.348Z,75.77
2016-09-12T00:46:54.339Z,75.45
2016-09-12T00:47:54.336Z,75.48
2016-09-12T00:48:54.371Z,75.48
2016-09-12T00:49:54.347Z,75.38
2016-09-12T00:50:55.267Z,75.1
2016-09-12T00:51:54.335Z,75.82
2016-09-12T00:52:54.358Z,75.82
2016-09-12T00:53:54.326Z,75.82
2016-09-12T00:54:54.328Z,75.82
2016-09-12T00:55:54.386Z,75.73
2016-09-12T00:56:54.735Z,75.87
2016-09-12T00:57:54.395Z,75.92
2016-09-12T00:58:54.616Z,75.54
2016-09-12T00:59:54.314Z,75.54
2016-09-12T01:00:54.898Z,76.12
2016-09-12T01:01:55.109Z,76.4
2016-09-12T01:02:55.177Z,76.31
2016-09-12T01:03:55.584Z,76.21
2016-09-12T01:04:54.317Z,76.5
2016-09-12T01:05:54.460Z,76.4
2016-09-12T01:06:54.318Z,76.4
2016-09-12T01:07:54.293Z,76.4
2016-09-12T01:08:54.343Z,76.59
2016-09-12T01:09:54.643Z,76.4
2016-09-12T01:10:54.394Z,76.79
2016-09-12T01:11:54.548Z,76.69
2016-09-12T01:12:54.283Z,76.5
2016-09-12T01:13:54.296Z,76.69
2016-09-12T01:14:54.292Z,76.31
2016-09-12T01:15:54.287Z,76.31
2016-09-12T01:16:54.831Z,76.69
2016-09-12T01:17:54.281Z,76.5
2016-09-12T01:18:54.274Z,76.5
2016-09-12T01:19:54.574Z,76.88
2016-09-12T01:20:54.268Z,77.08
2016-09-12T01:21:54.329Z,77.08
2016-09-12T01:22:54.275Z,76.79
2016-09-12T01:23:54.273Z,76.79
2016-09-12T01:24:54.275Z,76.88
2016-09-12T01:25:54.270Z,77.08
2016-09-12T01:26:54.254Z,77.56
2016-09-12T01:27:54.276Z,77.17
2016-09-12T01:28:54.258Z,77.36
2016-09-12T01:29:54.257Z,77.36
2016-09-12T01:30:54.248Z,77.17
2016-09-12T01:31:54.293Z,77.36
2016-09-12T01:32:54.241Z,77.26
2016-09-12T01:33:54.243Z,77.46
2016-09-12T01:34:54.237Z,77.17
2016-09-12T01:35:54.234Z,77.46
2016-09-12T01:36:54.253Z,77.36
2016-09-12T01:37:54.235Z,77.75
2016-09-12T01:38:54.245Z,77.36
2016-09-12T01:39:54.233Z,78.23
2016-09-12T01:40:54.226Z,77.9
2016-09-12T01:41:54.221Z,77.9
2016-09-12T01:42:54.223Z,77.71
2016-09-12T01:43:54.238Z,77.71
2016-09-12T01:44:54.214Z,77.9
2016-09-12T01:45:54.221Z,77.71
2016-09-12T01:46:54.222Z,77.71
2016-09-12T01:47:54.510Z,77.61
2016-09-12T01:48:54.206Z,77.61
2016-09-12T01:49:54.209Z,77.61
2016-09-12T01:50:54.202Z,77.8
2016-09-12T01:51:54.511Z,77.8
2016-09-12T01:52:54.216Z,78
2016-09-12T01:53:54.214Z,78.38
2016-09-12T01:54:54.683Z,78.28
2016-09-12T01:55:54.194Z,78.38
2016-09-12T01:56:54.508Z,78.47
2016-09-12T01:57:54.193Z,78.47
2016-09-12T01:58:54.194Z,78.47
2016-09-12T01:59:54.187Z,78.47
2016-09-12T02:00:54.180Z,78.77
2016-09-12T02:01:54.176Z,78.77
2016-09-12T02:02:54.361Z,78.47
2016-09-12T02:03:54.175Z,78.57
2016-09-12T02:04:54.174Z,78.67
2016-09-12T02:05:54.199Z,78.57
2016-09-12T02:06:54.170Z,78.19
2016-09-12T02:07:54.196Z,78.96
2016-09-12T02:08:54.305Z,78.67
2016-09-12T02:10:54.157Z,78.77
2016-09-12T02:11:54.157Z,78.86
2016-09-12T02:12:54.162Z,78.67
2016-09-12T02:13:54.778Z,78.67
2016-09-12T02:14:54.148Z,78.57
2016-09-12T02:15:54.149Z,78.86
2016-09-12T02:16:54.141Z,78.67
2016-09-12T02:17:54.492Z,78.77
2016-09-12T02:18:56.381Z,78.96
2016-09-12T02:19:54.349Z,79.53
2016-09-12T02:20:55.304Z,79.05
2016-09-12T02:21:55.061Z,79.05
2016-09-12T02:22:54.130Z,78.96
2016-09-12T02:23:54.683Z,78.77
2016-09-12T02:24:54.168Z,78.86
2016-09-12T02:25:54.129Z,78.86
2016-09-12T02:26:54.218Z,79.14
2016-09-12T02:27:54.419Z,78.96
2016-09-12T02:28:54.714Z,79.34
2016-09-12T02:29:54.130Z,79.14
2016-09-12T02:30:54.110Z,79.24
2016-09-12T02:31:54.508Z,79.14
2016-09-12T02:32:54.104Z,79.14
2016-09-12T02:33:54.102Z,79.53
2016-09-12T02:34:54.109Z,79.24
2016-09-12T02:35:54.122Z,79.14
2016-09-12T02:36:54.391Z,79.21
2016-09-12T02:37:54.086Z,79.05
2016-09-12T02:38:54.093Z,79.34
2016-09-12T02:39:54.098Z,78.96
2016-09-12T02:40:54.397Z,79.63
2016-09-12T02:41:54.079Z,79.72
2016-09-12T02:42:54.084Z,79.82
2016-09-12T02:43:54.100Z,79.97
2016-09-12T02:44:54.384Z,79.88
2016-09-12T02:45:54.072Z,79.88
2016-09-12T02:46:54.068Z,79.88
2016-09-12T02:47:54.066Z,80.26
2016-09-12T02:48:54.057Z,80.4
2016-09-12T02:49:54.061Z,80.07
2016-09-12T02:50:54.056Z,79.97
2016-09-12T02:51:54.052Z,80.26
2016-09-12T02:52:54.060Z,80.2
2016-09-12T02:53:54.058Z,80.26
2016-09-12T02:54:54.048Z,80.4
2016-09-12T02:55:54.045Z,80.16
2016-09-12T02:56:54.041Z,80.07
2016-09-12T02:57:54.039Z,80.35
2016-09-12T02:58:54.034Z,80.35
2016-09-12T02:59:54.034Z,81.02
2016-09-12T03:00:54.332Z,80.35
2016-09-12T03:01:54.030Z,80.55
2016-09-12T03:02:54.032Z,80.74
2016-09-12T03:03:54.327Z,81.02
2016-09-12T03:04:54.027Z,80.83
2016-09-12T03:05:54.035Z,80.64
2016-09-12T03:06:54.334Z,80.45
2016-09-12T03:07:54.031Z,80.16
2016-09-12T03:08:54.019Z,80.55
2016-09-12T03:09:54.012Z,80.93
2016-09-12T03:10:54.026Z,81.12
2016-09-12T03:11:54.002Z,81.22
2016-09-12T03:12:54.001Z,80.93
2016-09-12T03:13:54.010Z,80.93
2016-09-12T03:14:53.998Z,80.83
2016-09-12T03:15:54.012Z,81.22
2016-09-12T03:16:53.993Z,81.31
2016-09-12T03:17:53.989Z,81.6
2016-09-12T03:18:53.986Z,81.6
2016-09-12T03:19:54.004Z,81.79
2016-09-12T03:20:53.981Z,81.6
2016-09-12T03:21:53.971Z,81.51
2016-09-12T03:22:53.984Z,81.89
2016-09-12T03:23:53.970Z,81.7
2016-09-12T03:24:53.973Z,81.41
2016-09-12T03:25:53.991Z,81.6
2016-09-12T03:26:53.963Z,81.6
2016-09-12T03:27:54.741Z,81.6
2016-09-12T03:28:55.215Z,81.41
2016-09-12T03:29:53.965Z,81.02
2016-09-12T03:30:53.960Z,81.79
2016-09-12T03:31:54.735Z,81.18
2016-09-12T03:32:53.943Z,81.79
2016-09-12T03:33:53.975Z,81.75
2016-09-12T03:34:53.953Z,81.41
2016-09-12T03:35:53.943Z,81.41
2016-09-12T03:36:55.442Z,81.41
2016-09-12T03:37:53.933Z,81.41
2016-09-12T03:38:54.469Z,82.04
2016-09-12T03:39:54.474Z,81.98
2016-09-12T03:40:53.929Z,81.41
2016-09-12T03:41:53.926Z,81.41
2016-09-12T03:42:53.952Z,81.7
2016-09-12T03:43:53.922Z,81.98
2016-09-12T03:44:53.930Z,82.27
2016-09-12T03:45:53.912Z,81.98
2016-09-12T03:46:54.222Z,81.79
2016-09-12T03:47:53.908Z,82.18
2016-09-12T03:48:53.999Z,82.18
2016-09-12T03:49:53.908Z,81.89
2016-09-12T03:50:53.924Z,82.18
2016-09-12T03:51:53.899Z,82.08
2016-09-12T03:52:53.895Z,82.27
2016-09-12T03:53:53.892Z,82.27
2016-09-12T03:54:53.884Z,81.98
2016-09-12T03:55:53.879Z,82.08
2016-09-12T03:56:53.951Z,82.27
2016-09-12T03:57:53.877Z,82.18
2016-09-12T03:58:53.880Z,82.18
2016-09-12T03:59:53.870Z,82.14
2016-09-12T04:00:53.903Z,82.18
2016-09-12T04:01:53.863Z,82.18
2016-09-12T04:02:53.888Z,81.95
2016-09-12T04:03:53.868Z,82.65
2016-09-12T04:04:53.892Z,82.62
2016-09-12T04:05:53.868Z,82.85
2016-09-12T04:06:54.025Z,82.71
2016-09-12T04:07:53.856Z,82.81
2016-09-12T04:08:53.890Z,82.62
2016-09-12T04:09:53.854Z,82.85
2016-09-12T04:10:53.862Z,82.94
2016-09-12T04:11:53.832Z,82.71
2016-09-12T04:12:54.084Z,83.09
2016-09-12T04:13:53.832Z,83
2016-09-12T04:14:53.840Z,82.9
2016-09-12T04:15:53.837Z,83.19
2016-09-12T04:16:53.980Z,83.38
2016-09-12T04:17:54.280Z,83
2016-09-12T04:18:53.820Z,83.38
2016-09-12T04:19:53.820Z,82.81
2016-09-12T04:20:53.814Z,83.09
2016-09-12T04:21:53.812Z,83.19
2016-09-12T04:22:53.842Z,82.9
2016-09-12T04:23:53.807Z,83.38
2016-09-12T04:24:53.812Z,84.05
2016-09-12T04:25:54.104Z,83.48
2016-09-12T04:26:53.793Z,83.86
2016-09-12T04:27:53.790Z,83.95
2016-09-12T04:28:53.793Z,83.76
2016-09-12T04:29:53.787Z,83.86
2016-09-12T04:30:53.789Z,84.05
2016-09-12T04:31:53.800Z,83.86
2016-09-12T04:32:53.792Z,83.86
2016-09-12T04:33:53.870Z,83.86
2016-09-12T04:34:53.835Z,83.95
2016-09-12T04:35:53.772Z,83.76
2016-09-12T04:36:54.066Z,83.86
2016-09-12T04:37:53.774Z,83.38
2016-09-12T04:38:53.775Z,83.95
2016-09-12T04:39:54.065Z,83.95
2016-09-12T04:40:53.757Z,83.86
2016-09-12T04:41:53.750Z,83.95
2016-09-12T04:42:53.762Z,83.86
2016-09-12T04:43:53.753Z,83.86
2016-09-12T04:44:53.746Z,83.95
2016-09-12T04:45:55.439Z,84.44
2016-09-12T04:46:54.320Z,84.25
2016-09-12T04:47:53.752Z,83.29
2016-09-12T04:48:53.751Z,83.48
2016-09-12T04:49:53.733Z,83.86
2016-09-12T04:50:53.730Z,83.86
2016-09-12T04:51:54.092Z,83.95
2016-09-12T04:52:53.897Z,83.95
2016-09-12T04:53:54.326Z,84.05
2016-09-12T04:54:54.582Z,83.86
2016-09-12T04:55:54.051Z,83.86
2016-09-12T04:56:54.459Z,84.05
2016-09-12T04:57:54.307Z,84.05
2016-09-12T04:58:54.005Z,83.33
2016-09-12T04:59:53.702Z,83.23
2016-09-12T05:00:53.695Z,83.14
2016-09-12T05:01:53.897Z,83.23
2016-09-12T05:02:54.739Z,83.14
2016-09-12T05:03:53.736Z,83.61
2016-09-12T05:05:53.686Z,82.75
2016-09-12T05:06:53.693Z,83.04
2016-09-12T05:07:53.673Z,82.85
2016-09-12T05:08:53.676Z,82.31
2016-09-12T05:09:53.678Z,82.31
2016-09-12T05:10:53.672Z,82.12
2016-09-12T05:11:53.982Z,81.64
2016-09-12T05:12:53.976Z,81.45
2016-09-12T05:13:53.676Z,81.64
2016-09-12T05:14:53.663Z,81.3
2016-09-12T05:15:53.657Z,81.4
2016-09-12T05:16:53.963Z,81.4
2016-09-12T05:17:53.659Z,80.53
2016-09-12T05:18:53.705Z,80.91
2016-09-12T05:19:53.650Z,80.09
2016-09-12T05:20:53.841Z,80.47
2016-09-12T05:21:53.645Z,80.19
2016-09-12T05:22:53.641Z,79.03
2016-09-12T05:23:53.644Z,79.17
2016-09-12T05:24:53.832Z,78.88
2016-09-12T05:25:53.789Z,79.07
2016-09-12T05:26:54.027Z,78.73
2016-09-12T05:27:53.947Z,77.86
2016-09-12T05:28:53.635Z,77.96
2016-09-12T05:29:53.644Z,77.51
2016-09-12T05:30:53.648Z,77.23
2016-09-12T05:31:53.637Z,76.84
2016-09-12T05:32:53.642Z,76.59
2016-09-12T05:33:53.637Z,75.92
2016-09-12T05:34:53.641Z,75.63
2016-09-12T05:35:53.649Z,75.34
2016-09-12T05:36:53.643Z,75.19
2016-09-12T05:37:53.648Z,74.32
2016-09-12T05:38:53.782Z,74.41
2016-09-12T05:39:53.640Z,73.88
2016-09-12T05:40:53.637Z,74.07
2016-09-12T05:41:53.649Z,73.01
2016-09-12T05:42:53.661Z,73.05
2016-09-12T05:43:53.652Z,72.47
2016-09-12T05:44:53.722Z,71.79
2016-09-12T05:45:53.693Z,71.83
2016-09-12T05:46:53.650Z,71.15
2016-09-12T05:47:53.672Z,70.96
2016-09-12T05:48:53.644Z,70.86
2016-09-12T05:49:53.960Z,70.22
2016-09-12T05:50:53.666Z,69.45
2016-09-12T05:51:53.660Z,69.55
2016-09-12T05:52:53.656Z,69
2016-09-12T05:53:53.714Z,69.1
2016-09-12T05:54:53.665Z,67.85
2016-09-12T05:55:53.969Z,68.04
2016-09-12T05:56:53.665Z,67.78
2016-09-12T05:57:53.665Z,67.49
2016-09-12T05:58:53.687Z,66.63
2016-09-12T05:59:53.679Z,66.24
2016-09-12T06:00:54.089Z,66.17
2016-09-12T06:01:53.796Z,65.78
2016-09-12T06:02:53.996Z,65.11
2016-09-12T06:03:54.377Z,64.82
2016-09-12T06:04:53.748Z,64.43
2016-09-12T06:05:55.126Z,64.66
2016-09-12T06:06:54.012Z,64.66
2016-09-12T06:07:53.695Z,64.27
2016-09-12T06:08:54.358Z,64.18
2016-09-12T06:09:54.062Z,63.89
2016-09-12T06:10:53.710Z,63.05
2016-09-12T06:11:53.799Z,63.34
2016-09-12T06:12:53.835Z,62.66
2016-09-12T06:13:54.200Z,62.47
2016-09-12T06:14:54.673Z,62.11
2016-09-12T06:15:53.750Z,62.01
2016-09-12T06:16:53.743Z,61.53
2016-09-12T06:17:54.393Z,61.66
2016-09-12T06:18:54.051Z,61.27
2016-09-12T06:19:54.389Z,60.69
2016-09-12T06:20:54.406Z,60.3
2016-09-12T06:22:32.069Z,59.46
2016-09-12T06:24:22.939Z,60.14
2016-09-12T06:24:37.264Z,59.69
2016-09-12T06:25:37.965Z,59.59
2016-09-12T06:26:37.269Z,59.2
2016-09-12T06:27:37.426Z,58.84
2016-09-12T06:28:37.279Z,58.26
2016-09-12T06:29:37.346Z,57.68
2016-09-12T06:30:37.293Z,57.8
2016-09-12T06:31:37.302Z,57.51
2016-09-12T06:32:37.307Z,57.42
2016-09-12T06:33:37.316Z,57.06
2016-09-12T06:34:37.318Z,56.67
2016-09-12T06:35:37.329Z,56.37
2016-09-12T06:36:37.334Z,56.37
2016-09-12T06:37:37.344Z,56.4
2016-09-12T06:38:37.351Z,56.01
2016-09-12T06:39:37.355Z,55.73
2016-09-12T06:40:37.636Z,55.92
2016-09-12T06:42:08.395Z,55.33
2016-09-12T06:44:48.099Z,54.88
